Terminal Aerodrome Forecast
Issued by NWS

Current Version | Previous Version | Text Only | Print | Product List | Glossary On
Versions: 1 2 3 4 5 6 7 8 9 10 11 12 13 14 15 16 17 18 19 20 21 22
000
FTUS45 KBOI 210542
TAFMYL
TAF
KMYL 210542Z 2106/2206 VRB04KT 6SM BR FEW005 OVC030
     FM210900 VRB03KT 1/2SM FG OVC005
     FM211500 VRB04KT 3SM -SHRA SCT005 OVC010=

USA.gov is the U.S. government's official web portal to all federal, state and local government web resources and services.